sensor_id;sensor_type;location;lat;lon;timestamp;temperature;humidity
18160;DHT22;9205;52.032;4.314;2022-12-31T00:00:14;13.20;99.90
18160;DHT22;9205;52.032;4.314;2022-12-31T00:02:41;12.90;99.90
18160;DHT22;9205;52.032;4.314;2022-12-31T00:05:09;13.10;99.90
18160;DHT22;9205;52.032;4.314;2022-12-31T00:07:36;13.10;99.90
18160;DHT22;9205;52.032;4.314;2022-12-31T00:10:06;12.80;99.90
18160;DHT22;9205;52.032;4.314;2022-12-31T00:12:34;12.70;99.90
18160;DHT22;9205;52.032;4.314;2022-12-31T00:15:02;12.90;99.90
18160;DHT22;9205;52.032;4.314;2022-12-31T00:17:30;13.00;99.90
18160;DHT22;9205;52.032;4.314;2022-12-31T00:19:57;12.90;99.90
18160;DHT22;9205;52.032;4.314;2022-12-31T00:22:25;12.70;99.90
18160;DHT22;9205;52.032;4.314;2022-12-31T00:24:52;13.10;99.90
18160;DHT22;9205;52.032;4.314;2022-12-31T00:27:21;12.90;99.90
18160;DHT22;9205;52.032;4.314;2022-12-31T00:29:48;12.90;99.90
18160;DHT22;9205;52.032;4.314;2022-12-31T00:32:16;12.90;99.90
18160;DHT22;9205;52.032;4.314;2022-12-31T00:34:43;13.00;99.90
18160;DHT22;9205;52.032;4.314;2022-12-31T00:37:10;13.20;99.90
18160;DHT22;9205;52.032;4.314;2022-12-31T00:39:38;12.70;99.90
18160;DHT22;9205;52.032;4.314;2022-12-31T00:42:05;12.70;99.90
18160;DHT22;9205;52.032;4.314;2022-12-31T00:44:34;13.00;99.90
18160;DHT22;9205;52.032;4.314;2022-12-31T00:47:01;12.60;99.90
18160;DHT22;9205;52.032;4.314;2022-12-31T00:49:29;12.70;99.90
18160;DHT22;9205;52.032;4.314;2022-12-31T00:51:56;13.10;99.90
18160;DHT22;9205;52.032;4.314;2022-12-31T00:54:24;13.20;99.90
18160;DHT22;9205;52.032;4.314;2022-12-31T00:56:51;12.80;99.90
18160;DHT22;9205;52.032;4.314;2022-12-31T00:59:19;13.00;99.90
18160;DHT22;9205;52.032;4.314;2022-12-31T01:01:47;12.80;99.90
18160;DHT22;9205;52.032;4.314;2022-12-31T01:04:17;12.70;99.90
18160;DHT22;9205;52.032;4.314;2022-12-31T01:06:46;12.80;99.90
18160;DHT22;9205;52.032;4.314;2022-12-31T01:09:14;13.10;99.90
18160;DHT22;9205;52.032;4.314;2022-12-31T01:11:43;13.10;99.90
18160;DHT22;9205;52.032;4.314;2022-12-31T01:14:12;12.90;99.90
18160;DHT22;9205;52.032;4.314;2022-12-31T01:16:43;12.80;99.90
18160;DHT22;9205;52.032;4.314;2022-12-31T01:19:14;13.00;99.90
18160;DHT22;9205;52.032;4.314;2022-12-31T01:21:43;12.60;99.90
18160;DHT22;9205;52.032;4.314;2022-12-31T01:24:12;12.80;99.90
18160;DHT22;9205;52.032;4.314;2022-12-31T01:26:40;12.60;99.90
18160;DHT22;9205;52.032;4.314;2022-12-31T01:29:08;12.80;99.90
18160;DHT22;9205;52.032;4.314;2022-12-31T01:31:37;13.00;99.90
18160;DHT22;9205;52.032;4.314;2022-12-31T01:34:05;13.20;99.90
18160;DHT22;9205;52.032;4.314;2022-12-31T01:36:36;12.50;99.90
18160;DHT22;9205;52.032;4.314;2022-12-31T01:39:06;12.90;99.90
18160;DHT22;9205;52.032;4.314;2022-12-31T01:41:35;12.70;99.90
18160;DHT22;9205;52.032;4.314;2022-12-31T01:47:19;12.70;99.90
18160;DHT22;9205;52.032;4.314;2022-12-31T01:49:56;12.80;99.90
18160;DHT22;9205;52.032;4.314;2022-12-31T01:52:30;12.50;99.90
18160;DHT22;9205;52.032;4.314;2022-12-31T01:55:13;12.40;99.90
18160;DHT22;9205;52.032;4.314;2022-12-31T01:57:45;13.00;99.90
18160;DHT22;9205;52.032;4.314;2022-12-31T02:00:15;12.30;99.90
18160;DHT22;9205;52.032;4.314;2022-12-31T02:02:43;12.50;99.90
18160;DHT22;9205;52.032;4.314;2022-12-31T02:05:15;12.70;99.90
18160;DHT22;9205;52.032;4.314;2022-12-31T02:07:49;12.90;99.90
18160;DHT22;9205;52.032;4.314;2022-12-31T02:10:17;12.40;99.90
18160;DHT22;9205;52.032;4.314;2022-12-31T02:12:46;12.90;99.90
18160;DHT22;9205;52.032;4.314;2022-12-31T02:15:14;12.30;99.90
18160;DHT22;9205;52.032;4.314;2022-12-31T02:17:50;12.60;99.90
18160;DHT22;9205;52.032;4.314;2022-12-31T02:23:53;12.80;99.90
18160;DHT22;9205;52.032;4.314;2022-12-31T02:26:44;12.60;99.90
18160;DHT22;9205;52.032;4.314;2022-12-31T02:32:34;12.50;99.90
18160;DHT22;9205;52.032;4.314;2022-12-31T02:35:12;12.20;99.90
18160;DHT22;9205;52.032;4.314;2022-12-31T02:37:48;12.30;99.90
18160;DHT22;9205;52.032;4.314;2022-12-31T02:40:21;12.10;99.90
18160;DHT22;9205;52.032;4.314;2022-12-31T02:42:49;12.20;99.90
18160;DHT22;9205;52.032;4.314;2022-12-31T02:45:21;12.40;99.90
18160;DHT22;9205;52.032;4.314;2022-12-31T02:48:11;12.50;99.90
18160;DHT22;9205;52.032;4.314;2022-12-31T02:50:57;12.10;99.90
18160;DHT22;9205;52.032;4.314;2022-12-31T02:53:47;12.10;99.90
18160;DHT22;9205;52.032;4.314;2022-12-31T02:56:29;12.20;99.90
18160;DHT22;9205;52.032;4.314;2022-12-31T02:59:08;11.80;99.90
18160;DHT22;9205;52.032;4.314;2022-12-31T03:02:02;12.30;99.90
18160;DHT22;9205;52.032;4.314;2022-12-31T03:04:42;12.20;99.90
18160;DHT22;9205;52.032;4.314;2022-12-31T03:07:14;12.30;99.90
18160;DHT22;9205;52.032;4.314;2022-12-31T03:09:45;11.70;99.90
18160;DHT22;9205;52.032;4.314;2022-12-31T03:12:14;12.10;99.90
18160;DHT22;9205;52.032;4.314;2022-12-31T03:14:59;11.90;99.90
18160;DHT22;9205;52.032;4.314;2022-12-31T03:17:28;11.90;99.90
18160;DHT22;9205;52.032;4.314;2022-12-31T03:19:55;11.70;99.90
18160;DHT22;9205;52.032;4.314;2022-12-31T03:22:54;11.70;99.90
18160;DHT22;9205;52.032;4.314;2022-12-31T03:25:22;11.80;99.90
18160;DHT22;9205;52.032;4.314;2022-12-31T03:28:01;12.10;99.90
18160;DHT22;9205;52.032;4.314;2022-12-31T03:30:31;11.50;99.90
18160;DHT22;9205;52.032;4.314;2022-12-31T03:33:01;11.90;99.90
18160;DHT22;9205;52.032;4.314;2022-12-31T03:35:31;11.70;99.90
18160;DHT22;9205;52.032;4.314;2022-12-31T03:38:00;11.50;99.90
18160;DHT22;9205;52.032;4.314;2022-12-31T03:40:30;11.70;99.90
18160;DHT22;9205;52.032;4.314;2022-12-31T03:42:59;11.90;99.90
18160;DHT22;9205;52.032;4.314;2022-12-31T03:45:26;11.50;99.90
18160;DHT22;9205;52.032;4.314;2022-12-31T03:47:54;11.70;99.90
18160;DHT22;9205;52.032;4.314;2022-12-31T03:50:23;11.50;99.90
18160;DHT22;9205;52.032;4.314;2022-12-31T03:52:51;11.40;99.90
18160;DHT22;9205;52.032;4.314;2022-12-31T03:55:18;12.10;99.90
18160;DHT22;9205;52.032;4.314;2022-12-31T03:57:46;11.60;99.90
18160;DHT22;9205;52.032;4.314;2022-12-31T04:00:16;11.60;99.90
18160;DHT22;9205;52.032;4.314;2022-12-31T04:02:45;11.80;99.90
18160;DHT22;9205;52.032;4.314;2022-12-31T04:05:15;11.50;99.90
18160;DHT22;9205;52.032;4.314;2022-12-31T04:07:45;12.10;99.90
18160;DHT22;9205;52.032;4.314;2022-12-31T04:10:14;11.50;99.90
18160;DHT22;9205;52.032;4.314;2022-12-31T04:12:42;11.80;99.90
18160;DHT22;9205;52.032;4.314;2022-12-31T04:15:13;11.80;99.90
18160;DHT22;9205;52.032;4.314;2022-12-31T04:17:42;11.70;99.90
18160;DHT22;9205;52.032;4.314;2022-12-31T04:20:10;11.50;99.90
18160;DHT22;9205;52.032;4.314;2022-12-31T04:22:38;12.20;99.90
18160;DHT22;9205;52.032;4.314;2022-12-31T04:25:08;11.60;99.90
18160;DHT22;9205;52.032;4.314;2022-12-31T04:27:37;11.60;99.90
18160;DHT22;9205;52.032;4.314;2022-12-31T04:30:08;11.50;99.90
18160;DHT22;9205;52.032;4.314;2022-12-31T04:32:38;11.70;99.90
18160;DHT22;9205;52.032;4.314;2022-12-31T04:35:07;12.10;99.90
18160;DHT22;9205;52.032;4.314;2022-12-31T04:37:35;11.90;99.90
18160;DHT22;9205;52.032;4.314;2022-12-31T04:40:02;11.90;99.90
18160;DHT22;9205;52.032;4.314;2022-12-31T04:42:31;12.10;99.90
18160;DHT22;9205;52.032;4.314;2022-12-31T04:44:59;11.90;99.90
18160;DHT22;9205;52.032;4.314;2022-12-31T04:47:26;11.60;99.90
18160;DHT22;9205;52.032;4.314;2022-12-31T04:49:53;11.80;99.90
18160;DHT22;9205;52.032;4.314;2022-12-31T04:52:21;12.30;99.90
18160;DHT22;9205;52.032;4.314;2022-12-31T04:54:48;12.00;99.90
18160;DHT22;9205;52.032;4.314;2022-12-31T04:57:16;11.80;99.90
18160;DHT22;9205;52.032;4.314;2022-12-31T04:59:44;12.20;99.90
18160;DHT22;9205;52.032;4.314;2022-12-31T05:02:12;11.60;99.90
18160;DHT22;9205;52.032;4.314;2022-12-31T05:04:39;12.00;99.90
18160;DHT22;9205;52.032;4.314;2022-12-31T05:07:07;11.60;99.90
18160;DHT22;9205;52.032;4.314;2022-12-31T05:09:34;12.30;99.90
18160;DHT22;9205;52.032;4.314;2022-12-31T05:12:02;11.90;99.90
18160;DHT22;9205;52.032;4.314;2022-12-31T05:14:29;11.70;99.90
18160;DHT22;9205;52.032;4.314;2022-12-31T05:16:58;12.20;99.90
18160;DHT22;9205;52.032;4.314;2022-12-31T05:19:26;11.80;99.90
18160;DHT22;9205;52.032;4.314;2022-12-31T05:21:53;11.90;99.90
18160;DHT22;9205;52.032;4.314;2022-12-31T05:24:34;12.40;99.90
18160;DHT22;9205;52.032;4.314;2022-12-31T05:27:02;12.60;99.90
18160;DHT22;9205;52.032;4.314;2022-12-31T05:29:29;12.30;99.90
18160;DHT22;9205;52.032;4.314;2022-12-31T05:31:58;12.60;99.90
18160;DHT22;9205;52.032;4.314;2022-12-31T05:34:25;12.70;99.90
18160;DHT22;9205;52.032;4.314;2022-12-31T05:36:53;12.70;99.90
18160;DHT22;9205;52.032;4.314;2022-12-31T05:39:20;12.20;99.90
18160;DHT22;9205;52.032;4.314;2022-12-31T05:41:47;12.30;99.90
18160;DHT22;9205;52.032;4.314;2022-12-31T05:44:14;12.60;99.90
18160;DHT22;9205;52.032;4.314;2022-12-31T05:46:42;12.20;99.90
18160;DHT22;9205;52.032;4.314;2022-12-31T05:49:12;12.60;99.90
18160;DHT22;9205;52.032;4.314;2022-12-31T05:51:40;12.60;99.90
18160;DHT22;9205;52.032;4.314;2022-12-31T05:54:07;12.40;99.90
18160;DHT22;9205;52.032;4.314;2022-12-31T05:56:36;12.60;99.90
18160;DHT22;9205;52.032;4.314;2022-12-31T05:59:03;12.60;99.90
18160;DHT22;9205;52.032;4.314;2022-12-31T06:01:30;12.70;99.90
18160;DHT22;9205;52.032;4.314;2022-12-31T06:03:58;12.80;99.90
18160;DHT22;9205;52.032;4.314;2022-12-31T06:06:27;13.30;99.90
18160;DHT22;9205;52.032;4.314;2022-12-31T06:08:55;12.70;99.90
18160;DHT22;9205;52.032;4.314;2022-12-31T06:11:22;13.20;99.90
18160;DHT22;9205;52.032;4.314;2022-12-31T06:13:49;13.10;99.90
18160;DHT22;9205;52.032;4.314;2022-12-31T06:16:17;13.50;99.90
18160;DHT22;9205;52.032;4.314;2022-12-31T06:18:46;12.90;99.90
18160;DHT22;9205;52.032;4.314;2022-12-31T06:21:15;13.60;99.90
18160;DHT22;9205;52.032;4.314;2022-12-31T06:23:45;13.30;99.90
18160;DHT22;9205;52.032;4.314;2022-12-31T06:26:13;13.10;99.90
18160;DHT22;9205;52.032;4.314;2022-12-31T06:28:41;13.50;99.90
18160;DHT22;9205;52.032;4.314;2022-12-31T06:31:11;13.80;99.90
18160;DHT22;9205;52.032;4.314;2022-12-31T06:33:40;13.80;99.90
18160;DHT22;9205;52.032;4.314;2022-12-31T06:36:13;13.70;99.90
18160;DHT22;9205;52.032;4.314;2022-12-31T06:38:43;13.50;99.90
18160;DHT22;9205;52.032;4.314;2022-12-31T06:41:12;13.30;99.90
18160;DHT22;9205;52.032;4.314;2022-12-31T06:43:41;13.80;99.90
18160;DHT22;9205;52.032;4.314;2022-12-31T06:46:11;13.40;99.90
18160;DHT22;9205;52.032;4.314;2022-12-31T06:48:40;13.80;99.90
18160;DHT22;9205;52.032;4.314;2022-12-31T06:51:11;13.50;99.90
18160;DHT22;9205;52.032;4.314;2022-12-31T06:53:39;13.80;99.90
18160;DHT22;9205;52.032;4.314;2022-12-31T06:56:12;14.20;99.90
18160;DHT22;9205;52.032;4.314;2022-12-31T06:58:41;14.30;99.90
18160;DHT22;9205;52.032;4.314;2022-12-31T07:01:26;13.80;99.90
18160;DHT22;9205;52.032;4.314;2022-12-31T07:04:06;14.40;99.90
18160;DHT22;9205;52.032;4.314;2022-12-31T07:06:58;14.20;99.90
18160;DHT22;9205;52.032;4.314;2022-12-31T07:09:37;14.40;99.90
18160;DHT22;9205;52.032;4.314;2022-12-31T07:12:19;14.00;99.90
18160;DHT22;9205;52.032;4.314;2022-12-31T07:15:03;13.70;99.90
18160;DHT22;9205;52.032;4.314;2022-12-31T07:17:39;14.20;99.90
18160;DHT22;9205;52.032;4.314;2022-12-31T07:20:14;14.00;99.90
18160;DHT22;9205;52.032;4.314;2022-12-31T07:22:43;14.00;99.90
18160;DHT22;9205;52.032;4.314;2022-12-31T07:25:14;14.50;99.90
18160;DHT22;9205;52.032;4.314;2022-12-31T07:27:55;13.80;99.90
18160;DHT22;9205;52.032;4.314;2022-12-31T07:30:36;14.40;99.90
18160;DHT22;9205;52.032;4.314;2022-12-31T07:33:32;14.20;99.90
18160;DHT22;9205;52.032;4.314;2022-12-31T07:36:16;14.00;99.90
18160;DHT22;9205;52.032;4.314;2022-12-31T07:38:59;13.80;99.90
18160;DHT22;9205;52.032;4.314;2022-12-31T07:41:46;14.50;99.90
18160;DHT22;9205;52.032;4.314;2022-12-31T07:44:42;14.10;99.90
18160;DHT22;9205;52.032;4.314;2022-12-31T07:47:23;13.70;99.90
18160;DHT22;9205;52.032;4.314;2022-12-31T07:49:51;14.20;99.90
18160;DHT22;9205;52.032;4.314;2022-12-31T07:52:20;13.80;99.90
18160;DHT22;9205;52.032;4.314;2022-12-31T07:54:48;13.80;99.90
18160;DHT22;9205;52.032;4.314;2022-12-31T07:57:18;14.20;99.90
18160;DHT22;9205;52.032;4.314;2022-12-31T07:59:57;13.80;99.90
18160;DHT22;9205;52.032;4.314;2022-12-31T08:02:56;13.70;99.90
18160;DHT22;9205;52.032;4.314;2022-12-31T08:05:41;14.30;99.90
18160;DHT22;9205;52.032;4.314;2022-12-31T08:08:24;13.80;99.90
18160;DHT22;9205;52.032;4.314;2022-12-31T08:11:07;14.30;99.90
18160;DHT22;9205;52.032;4.314;2022-12-31T08:13:41;13.80;99.90
18160;DHT22;9205;52.032;4.314;2022-12-31T08:16:13;14.20;99.90
18160;DHT22;9205;52.032;4.314;2022-12-31T08:18:41;13.60;99.90
18160;DHT22;9205;52.032;4.314;2022-12-31T08:21:18;13.90;99.90
18160;DHT22;9205;52.032;4.314;2022-12-31T08:24:00;13.80;99.90
18160;DHT22;9205;52.032;4.314;2022-12-31T08:26:46;13.80;99.90
18160;DHT22;9205;52.032;4.314;2022-12-31T08:29:32;14.20;99.90
18160;DHT22;9205;52.032;4.314;2022-12-31T08:32:11;14.30;99.90
18160;DHT22;9205;52.032;4.314;2022-12-31T08:34:50;14.10;99.90
18160;DHT22;9205;52.032;4.314;2022-12-31T08:37:33;14.00;99.90
18160;DHT22;9205;52.032;4.314;2022-12-31T08:40:14;13.90;99.90
18160;DHT22;9205;52.032;4.314;2022-12-31T08:43:06;14.40;99.90
18160;DHT22;9205;52.032;4.314;2022-12-31T08:45:47;14.10;99.90
18160;DHT22;9205;52.032;4.314;2022-12-31T08:48:24;14.30;99.90
18160;DHT22;9205;52.032;4.314;2022-12-31T08:50:57;14.20;99.90
18160;DHT22;9205;52.032;4.314;2022-12-31T08:53:25;14.20;99.90
18160;DHT22;9205;52.032;4.314;2022-12-31T08:55:57;14.70;99.90
18160;DHT22;9205;52.032;4.314;2022-12-31T08:58:41;14.60;99.90
18160;DHT22;9205;52.032;4.314;2022-12-31T09:01:15;14.60;99.90
18160;DHT22;9205;52.032;4.314;2022-12-31T09:04:02;14.50;99.90
18160;DHT22;9205;52.032;4.314;2022-12-31T09:06:39;14.20;99.90
18160;DHT22;9205;52.032;4.314;2022-12-31T09:09:13;14.60;99.90
18160;DHT22;9205;52.032;4.314;2022-12-31T09:11:53;14.70;99.90
18160;DHT22;9205;52.032;4.314;2022-12-31T09:14:41;14.40;99.90
18160;DHT22;9205;52.032;4.314;2022-12-31T09:17:44;14.40;99.90
18160;DHT22;9205;52.032;4.314;2022-12-31T09:20:22;14.80;99.90
18160;DHT22;9205;52.032;4.314;2022-12-31T09:22:52;14.20;99.90
18160;DHT22;9205;52.032;4.314;2022-12-31T09:25:22;14.80;99.90
18160;DHT22;9205;52.032;4.314;2022-12-31T09:28:04;14.70;99.90
18160;DHT22;9205;52.032;4.314;2022-12-31T09:30:47;14.60;99.90
18160;DHT22;9205;52.032;4.314;2022-12-31T09:33:30;14.20;99.90
18160;DHT22;9205;52.032;4.314;2022-12-31T09:36:07;14.80;99.90
18160;DHT22;9205;52.032;4.314;2022-12-31T09:38:47;14.20;99.90
18160;DHT22;9205;52.032;4.314;2022-12-31T09:41:48;14.30;99.90
18160;DHT22;9205;52.032;4.314;2022-12-31T09:45:03;14.20;99.90
18160;DHT22;9205;52.032;4.314;2022-12-31T09:48:19;14.70;99.90
18160;DHT22;9205;52.032;4.314;2022-12-31T09:51:33;14.40;99.90
18160;DHT22;9205;52.032;4.314;2022-12-31T09:54:32;14.90;99.90
18160;DHT22;9205;52.032;4.314;2022-12-31T09:57:26;15.00;99.90
18160;DHT22;9205;52.032;4.314;2022-12-31T10:00:10;15.00;99.90
18160;DHT22;9205;52.032;4.314;2022-12-31T10:03:09;15.10;99.90
18160;DHT22;9205;52.032;4.314;2022-12-31T10:05:59;14.70;99.90
18160;DHT22;9205;52.032;4.314;2022-12-31T10:08:53;14.80;99.90
18160;DHT22;9205;52.032;4.314;2022-12-31T10:11:38;14.90;99.90
18160;DHT22;9205;52.032;4.314;2022-12-31T10:14:29;14.70;99.90
18160;DHT22;9205;52.032;4.314;2022-12-31T10:17:26;14.50;99.90
18160;DHT22;9205;52.032;4.314;2022-12-31T10:23:35;15.30;99.90
18160;DHT22;9205;52.032;4.314;2022-12-31T10:26:48;15.20;99.90
18160;DHT22;9205;52.032;4.314;2022-12-31T10:29:36;15.30;99.90
18160;DHT22;9205;52.032;4.314;2022-12-31T10:32:17;14.90;99.90
18160;DHT22;9205;52.032;4.314;2022-12-31T10:34:54;15.30;99.90
18160;DHT22;9205;52.032;4.314;2022-12-31T10:37:30;14.90;99.90
18160;DHT22;9205;52.032;4.314;2022-12-31T10:40:17;15.40;99.90
18160;DHT22;9205;52.032;4.314;2022-12-31T10:43:32;15.30;99.90
18160;DHT22;9205;52.032;4.314;2022-12-31T10:47:01;15.00;99.90
18160;DHT22;9205;52.032;4.314;2022-12-31T10:50:15;15.30;99.90
18160;DHT22;9205;52.032;4.314;2022-12-31T10:53:22;15.10;99.90
18160;DHT22;9205;52.032;4.314;2022-12-31T10:56:39;15.40;99.90
18160;DHT22;9205;52.032;4.314;2022-12-31T10:59:54;15.40;99.90
18160;DHT22;9205;52.032;4.314;2022-12-31T11:10:25;14.40;99.90
18160;DHT22;9205;52.032;4.314;2022-12-31T11:13:34;14.30;99.90
18160;DHT22;9205;52.032;4.314;2022-12-31T11:16:43;14.60;99.90
18160;DHT22;9205;52.032;4.314;2022-12-31T11:19:26;14.20;99.90
18160;DHT22;9205;52.032;4.314;2022-12-31T11:22:25;14.40;99.90
18160;DHT22;9205;52.032;4.314;2022-12-31T11:28:22;14.50;99.90
18160;DHT22;9205;52.032;4.314;2022-12-31T11:31:11;15.00;99.90
18160;DHT22;9205;52.032;4.314;2022-12-31T11:34:10;14.60;99.90
18160;DHT22;9205;52.032;4.314;2022-12-31T11:37:00;14.40;99.90
18160;DHT22;9205;52.032;4.314;2022-12-31T11:39:48;14.40;99.90
18160;DHT22;9205;52.032;4.314;2022-12-31T11:42:37;14.20;99.90
18160;DHT22;9205;52.032;4.314;2022-12-31T11:45:17;14.90;99.90
18160;DHT22;9205;52.032;4.314;2022-12-31T11:48:04;14.50;99.90
18160;DHT22;9205;52.032;4.314;2022-12-31T11:50:47;14.70;99.90
18160;DHT22;9205;52.032;4.314;2022-12-31T11:53:33;14.20;99.90
18160;DHT22;9205;52.032;4.314;2022-12-31T11:56:15;14.80;99.90
18160;DHT22;9205;52.032;4.314;2022-12-31T11:58:46;14.90;99.90
18160;DHT22;9205;52.032;4.314;2022-12-31T12:01:19;14.40;99.90
18160;DHT22;9205;52.032;4.314;2022-12-31T12:03:52;14.30;99.90
18160;DHT22;9205;52.032;4.314;2022-12-31T12:06:23;14.30;99.90
18160;DHT22;9205;52.032;4.314;2022-12-31T12:08:58;15.20;99.90
18160;DHT22;9205;52.032;4.314;2022-12-31T12:11:31;15.10;99.90
18160;DHT22;9205;52.032;4.314;2022-12-31T12:14:17;14.30;99.90
18160;DHT22;9205;52.032;4.314;2022-12-31T12:16:46;14.30;99.90
18160;DHT22;9205;52.032;4.314;2022-12-31T12:19:20;14.30;99.90
18160;DHT22;9205;52.032;4.314;2022-12-31T12:21:52;14.90;99.90
18160;DHT22;9205;52.032;4.314;2022-12-31T12:24:24;15.10;99.90
18160;DHT22;9205;52.032;4.314;2022-12-31T12:26:54;14.90;99.90
18160;DHT22;9205;52.032;4.314;2022-12-31T12:29:27;15.10;99.90
18160;DHT22;9205;52.032;4.314;2022-12-31T12:31:57;14.60;99.90
18160;DHT22;9205;52.032;4.314;2022-12-31T12:34:28;15.50;99.90
18160;DHT22;9205;52.032;4.314;2022-12-31T12:36:56;15.50;99.90
18160;DHT22;9205;52.032;4.314;2022-12-31T12:39:25;15.50;99.90
18160;DHT22;9205;52.032;4.314;2022-12-31T12:42:01;14.70;99.90
18160;DHT22;9205;52.032;4.314;2022-12-31T12:44:30;15.30;99.90
18160;DHT22;9205;52.032;4.314;2022-12-31T12:47:01;14.90;99.90
18160;DHT22;9205;52.032;4.314;2022-12-31T12:49:37;15.60;99.90
18160;DHT22;9205;52.032;4.314;2022-12-31T12:52:24;14.70;99.90
18160;DHT22;9205;52.032;4.314;2022-12-31T12:55:12;14.80;99.90
18160;DHT22;9205;52.032;4.314;2022-12-31T12:57:49;15.30;99.90
18160;DHT22;9205;52.032;4.314;2022-12-31T13:00:31;14.80;99.90
18160;DHT22;9205;52.032;4.314;2022-12-31T13:06:27;15.20;99.90
18160;DHT22;9205;52.032;4.314;2022-12-31T13:09:14;15.60;99.90
18160;DHT22;9205;52.032;4.314;2022-12-31T13:11:56;14.80;99.90
18160;DHT22;9205;52.032;4.314;2022-12-31T13:14:36;14.80;99.90
18160;DHT22;9205;52.032;4.314;2022-12-31T13:17:29;15.10;99.90
18160;DHT22;9205;52.032;4.314;2022-12-31T13:20:12;15.50;99.90
18160;DHT22;9205;52.032;4.314;2022-12-31T13:22:48;15.40;99.90
18160;DHT22;9205;52.032;4.314;2022-12-31T13:25:25;15.10;99.90
18160;DHT22;9205;52.032;4.314;2022-12-31T13:28:03;15.60;99.90
18160;DHT22;9205;52.032;4.314;2022-12-31T13:30:37;15.60;99.90
18160;DHT22;9205;52.032;4.314;2022-12-31T13:33:14;14.80;99.90
18160;DHT22;9205;52.032;4.314;2022-12-31T13:35:47;15.30;99.90
18160;DHT22;9205;52.032;4.314;2022-12-31T13:38:21;15.30;99.90
18160;DHT22;9205;52.032;4.314;2022-12-31T13:41:00;15.60;99.90
18160;DHT22;9205;52.032;4.314;2022-12-31T13:43:37;15.00;99.90
18160;DHT22;9205;52.032;4.314;2022-12-31T13:46:13;15.60;99.90
18160;DHT22;9205;52.032;4.314;2022-12-31T13:48:48;15.00;99.90
18160;DHT22;9205;52.032;4.314;2022-12-31T13:51:26;15.10;99.90
18160;DHT22;9205;52.032;4.314;2022-12-31T13:54:21;15.20;99.90
18160;DHT22;9205;52.032;4.314;2022-12-31T13:57:00;15.40;99.90
18160;DHT22;9205;52.032;4.314;2022-12-31T13:59:34;15.40;99.90
18160;DHT22;9205;52.032;4.314;2022-12-31T14:02:14;15.10;99.90
18160;DHT22;9205;52.032;4.314;2022-12-31T14:05:03;14.60;99.90
18160;DHT22;9205;52.032;4.314;2022-12-31T14:07:45;14.80;99.90
18160;DHT22;9205;52.032;4.314;2022-12-31T14:10:27;14.70;99.90
18160;DHT22;9205;52.032;4.314;2022-12-31T14:13:16;14.90;99.90
18160;DHT22;9205;52.032;4.314;2022-12-31T14:16:04;15.30;99.90
18160;DHT22;9205;52.032;4.314;2022-12-31T14:18:45;15.20;99.90
18160;DHT22;9205;52.032;4.314;2022-12-31T14:21:24;14.50;99.90
18160;DHT22;9205;52.032;4.314;2022-12-31T14:24:05;15.20;99.90
18160;DHT22;9205;52.032;4.314;2022-12-31T14:26:48;15.10;99.90
18160;DHT22;9205;52.032;4.314;2022-12-31T14:29:29;15.10;99.90
18160;DHT22;9205;52.032;4.314;2022-12-31T14:32:23;14.40;99.90
18160;DHT22;9205;52.032;4.314;2022-12-31T14:35:17;14.50;99.90
18160;DHT22;9205;52.032;4.314;2022-12-31T14:37:59;14.70;99.90
18160;DHT22;9205;52.032;4.314;2022-12-31T14:40:42;14.60;99.90
18160;DHT22;9205;52.032;4.314;2022-12-31T14:43:23;14.80;99.90
18160;DHT22;9205;52.032;4.314;2022-12-31T14:46:06;14.40;99.90
18160;DHT22;9205;52.032;4.314;2022-12-31T14:48:47;14.60;99.90
18160;DHT22;9205;52.032;4.314;2022-12-31T14:51:27;14.60;99.90
18160;DHT22;9205;52.032;4.314;2022-12-31T14:53:56;15.00;99.90
18160;DHT22;9205;52.032;4.314;2022-12-31T14:56:30;14.90;99.90
18160;DHT22;9205;52.032;4.314;2022-12-31T15:01:59;15.00;99.90
18160;DHT22;9205;52.032;4.314;2022-12-31T15:04:32;15.10;99.90
18160;DHT22;9205;52.032;4.314;2022-12-31T15:07:13;14.40;99.90
18160;DHT22;9205;52.032;4.314;2022-12-31T15:10:02;14.50;99.90
18160;DHT22;9205;52.032;4.314;2022-12-31T15:12:55;14.40;99.90
18160;DHT22;9205;52.032;4.314;2022-12-31T15:15:37;14.40;99.90
18160;DHT22;9205;52.032;4.314;2022-12-31T15:18:34;15.10;99.90
18160;DHT22;9205;52.032;4.314;2022-12-31T15:21:24;14.40;99.90
18160;DHT22;9205;52.032;4.314;2022-12-31T15:24:01;14.40;99.90
18160;DHT22;9205;52.032;4.314;2022-12-31T15:26:46;15.10;99.90
18160;DHT22;9205;52.032;4.314;2022-12-31T15:29:26;14.50;99.90
18160;DHT22;9205;52.032;4.314;2022-12-31T15:31:57;14.90;99.90
18160;DHT22;9205;52.032;4.314;2022-12-31T15:34:30;14.90;99.90
18160;DHT22;9205;52.032;4.314;2022-12-31T15:37:01;14.60;99.90
18160;DHT22;9205;52.032;4.314;2022-12-31T15:39:39;14.80;99.90
18160;DHT22;9205;52.032;4.314;2022-12-31T15:42:41;14.40;99.90
18160;DHT22;9205;52.032;4.314;2022-12-31T15:45:15;14.30;99.90
18160;DHT22;9205;52.032;4.314;2022-12-31T15:47:49;14.80;99.90
18160;DHT22;9205;52.032;4.314;2022-12-31T15:50:23;14.30;99.90
18160;DHT22;9205;52.032;4.314;2022-12-31T15:53:16;14.80;99.90
18160;DHT22;9205;52.032;4.314;2022-12-31T15:55:58;14.60;99.90
18160;DHT22;9205;52.032;4.314;2022-12-31T15:58:30;14.60;99.90
18160;DHT22;9205;52.032;4.314;2022-12-31T16:01:05;15.00;99.90
18160;DHT22;9205;52.032;4.314;2022-12-31T16:03:41;14.80;99.90
18160;DHT22;9205;52.032;4.314;2022-12-31T16:06:14;14.80;99.90
18160;DHT22;9205;52.032;4.314;2022-12-31T16:08:44;14.90;99.90
18160;DHT22;9205;52.032;4.314;2022-12-31T16:11:16;14.80;99.90
18160;DHT22;9205;52.032;4.314;2022-12-31T16:13:47;14.80;99.90
18160;DHT22;9205;52.032;4.314;2022-12-31T16:16:21;14.70;99.90
18160;DHT22;9205;52.032;4.314;2022-12-31T16:18:49;14.80;99.90
18160;DHT22;9205;52.032;4.314;2022-12-31T16:21:31;14.60;99.90
18160;DHT22;9205;52.032;4.314;2022-12-31T16:24:02;14.60;99.90
18160;DHT22;9205;52.032;4.314;2022-12-31T16:26:37;14.80;99.90
18160;DHT22;9205;52.032;4.314;2022-12-31T16:29:15;14.40;99.90
18160;DHT22;9205;52.032;4.314;2022-12-31T16:31:45;14.40;99.90
18160;DHT22;9205;52.032;4.314;2022-12-31T16:34:17;14.40;99.90
18160;DHT22;9205;52.032;4.314;2022-12-31T16:36:56;14.60;99.90
18160;DHT22;9205;52.032;4.314;2022-12-31T16:39:27;14.50;99.90
18160;DHT22;9205;52.032;4.314;2022-12-31T16:42:16;14.70;99.90
18160;DHT22;9205;52.032;4.314;2022-12-31T16:44:45;14.70;99.90
18160;DHT22;9205;52.032;4.314;2022-12-31T16:47:17;14.60;99.90
18160;DHT22;9205;52.032;4.314;2022-12-31T16:49:49;14.30;99.90
18160;DHT22;9205;52.032;4.314;2022-12-31T16:52:31;14.50;99.90
18160;DHT22;9205;52.032;4.314;2022-12-31T16:55:00;14.30;99.90
18160;DHT22;9205;52.032;4.314;2022-12-31T16:57:34;14.50;99.90
18160;DHT22;9205;52.032;4.314;2022-12-31T17:00:05;14.50;99.90
18160;DHT22;9205;52.032;4.314;2022-12-31T17:02:35;14.40;99.90
18160;DHT22;9205;52.032;4.314;2022-12-31T17:05:17;14.40;99.90
18160;DHT22;9205;52.032;4.314;2022-12-31T17:07:46;14.50;39.40
18160;DHT22;9205;52.032;4.314;2022-12-31T17:10:19;14.40;1.00
18160;DHT22;9205;52.032;4.314;2022-12-31T17:12:53;14.30;1.00
18160;DHT22;9205;52.032;4.314;2022-12-31T17:15:25;14.30;1.00
18160;DHT22;9205;52.032;4.314;2022-12-31T17:17:56;14.20;1.00